createdAt,value
2019-02-20T00:04:44.108Z," 5.75"
2019-02-20T00:09:39.091Z," 5.91"
2019-02-20T00:14:35.174Z," 6.01"
2019-02-20T00:19:31.787Z," 5.93"
2019-02-20T00:24:27.055Z," 5.82"
2019-02-20T00:29:22.722Z," 5.97"
2019-02-20T00:34:18.530Z," 5.83"
2019-02-20T00:39:14.189Z," 5.86"
2019-02-20T00:44:09.784Z," 5.72"
2019-02-20T00:49:05.320Z," 5.75"
2019-02-20T00:54:00.977Z," 5.75"
2019-02-20T00:58:57.778Z," 5.69"
2019-02-20T01:03:53.147Z," 5.73"
2019-02-20T01:08:49.660Z," 5.73"
2019-02-20T01:13:44.875Z," 5.84"
2019-02-20T01:18:40.677Z," 5.90"
2019-02-20T01:23:37.362Z," 6.01"
2019-02-20T01:28:34.449Z," 6.04"
2019-02-20T01:33:29.831Z," 6.14"
2019-02-20T01:38:25.955Z," 6.11"
2019-02-20T01:43:22.956Z," 6.17"
2019-02-20T01:48:18.502Z," 6.27"
2019-02-20T01:53:14.171Z," 6.30"
2019-02-20T01:58:09.933Z," 6.26"
2019-02-20T02:03:05.788Z," 6.33"
2019-02-20T02:08:01.489Z," 6.33"
2019-02-20T02:12:57.091Z," 6.38"
2019-02-20T02:17:53.709Z," 6.51"
2019-02-20T02:22:48.669Z," 6.39"
2019-02-20T02:27:44.499Z," 6.46"
2019-02-20T02:32:40.215Z," 6.57"
2019-02-20T02:37:35.727Z," 6.56"
2019-02-20T02:42:31.645Z," 6.66"
2019-02-20T02:47:28.010Z," 6.52"
2019-02-20T02:52:23.731Z," 6.54"
2019-02-20T02:57:20.374Z," 6.54"
2019-02-20T03:02:16.065Z," 6.57"
2019-02-20T03:07:12.740Z," 6.59"
2019-02-20T03:12:09.047Z," 6.56"
2019-02-20T03:17:04.564Z," 6.54"
2019-02-20T03:22:00.307Z," 6.60"
2019-02-20T03:26:55.820Z," 6.59"
2019-02-20T03:31:52.481Z," 6.56"
2019-02-20T03:36:47.861Z," 6.62"
2019-02-20T03:41:43.656Z," 6.62"
2019-02-20T03:46:39.687Z," 6.49"
2019-02-20T03:51:36.414Z," 6.59"
2019-02-20T03:56:31.756Z," 6.62"
2019-02-20T04:01:28.828Z," 6.64"
2019-02-20T04:06:25.189Z," 6.64"
2019-02-20T04:11:21.073Z," 6.64"
2019-02-20T04:16:16.616Z," 6.48"
2019-02-20T04:21:12.485Z," 6.62"
2019-02-20T04:26:09.948Z," 6.67"
2019-02-20T04:31:05.216Z," 6.60"
2019-02-20T04:36:00.949Z," 6.63"
2019-02-20T04:40:56.711Z," 6.64"
2019-02-20T04:45:52.370Z," 6.72"
2019-02-20T04:50:49.203Z," 6.77"
2019-02-20T04:55:44.570Z," 6.72"
2019-02-20T05:00:41.379Z," 6.78"
2019-02-20T05:05:37.698Z," 6.66"
2019-02-20T05:10:32.967Z," 6.63"
2019-02-20T05:15:28.511Z," 6.63"
2019-02-20T05:20:24.443Z," 6.70"
2019-02-20T05:25:20.396Z," 6.60"
2019-02-20T05:30:16.905Z," 6.51"
2019-02-20T05:35:13.280Z," 6.49"
2019-02-20T05:40:08.527Z," 6.48"
2019-02-20T05:45:04.099Z," 6.31"
2019-02-20T05:49:59.699Z," 6.33"
2019-02-20T05:54:55.306Z," 6.14"
2019-02-20T05:59:52.068Z," 6.33"
2019-02-20T06:04:47.296Z," 6.12"
2019-02-20T06:09:43.082Z," 6.11"
2019-02-20T06:14:38.663Z," 6.11"
2019-02-20T06:19:35.367Z," 6.17"
2019-02-20T06:24:31.678Z," 6.08"
2019-02-20T06:29:27.021Z," 6.17"
2019-02-20T06:34:23.559Z," 6.28"
2019-02-20T06:39:19.103Z," 6.30"
2019-02-20T06:44:14.680Z," 6.36"
2019-02-20T06:49:11.411Z," 6.31"
2019-02-20T06:54:07.168Z," 6.31"
2019-02-20T06:59:02.869Z," 6.24"
2019-02-20T07:03:58.525Z," 6.28"
2019-02-20T07:08:54.208Z," 6.24"
2019-02-20T07:13:49.928Z," 6.33"
2019-02-20T07:18:45.598Z," 6.38"
2019-02-20T07:23:40.913Z," 6.38"
2019-02-20T07:28:36.665Z," 6.44"
2019-02-20T07:33:33.583Z," 6.52"
2019-02-20T07:38:30.325Z," 6.48"
2019-02-20T07:43:26.532Z," 6.59"
2019-02-20T07:48:22.385Z," 6.64"
2019-02-20T07:53:18.867Z," 6.60"
2019-02-20T07:58:14.701Z," 6.64"
2019-02-20T08:03:10.536Z," 6.69"
2019-02-20T08:08:06.467Z," 6.87"
2019-02-20T08:13:02.053Z," 6.93"
2019-02-20T08:17:59.246Z," 6.99"
2019-02-20T08:22:54.866Z," 7.11"
2019-02-20T08:27:50.979Z," 7.14"
2019-02-20T08:32:47.731Z," 7.23"
2019-02-20T08:37:43.159Z," 7.39"
2019-02-20T08:42:40.699Z," 7.47"
2019-02-20T08:47:37.081Z," 7.57"
2019-02-20T08:52:32.450Z," 7.67"
2019-02-20T08:57:28.132Z," 7.83"
2019-02-20T09:02:24.462Z," 7.91"
2019-02-20T09:07:20.207Z," 7.87"
2019-02-20T09:12:16.032Z," 8.05"
2019-02-20T09:17:12.754Z," 8.27"
2019-02-20T09:22:08.667Z," 8.34"
2019-02-20T09:27:04.500Z," 8.60"
2019-02-20T09:32:01.027Z," 8.56"
2019-02-20T09:36:56.361Z," 8.60"
2019-02-20T09:41:52.473Z," 8.67"
2019-02-20T09:46:49.387Z," 8.82"
2019-02-20T09:51:46.065Z," 8.97"
2019-02-20T09:56:41.989Z," 9.11"
2019-02-20T10:01:38.366Z," 9.48"
2019-02-20T10:06:34.499Z," 9.47"
2019-02-20T10:11:30.426Z," 9.73"
2019-02-20T10:16:27.343Z," 9.82"
2019-02-20T10:21:23.639Z," 9.99"
2019-02-20T10:26:19.570Z,10.07
2019-02-20T10:31:15.638Z,10.07
2019-02-20T10:36:11.393Z,10.01
2019-02-20T10:41:07.681Z,10.15
2019-02-20T10:46:03.405Z,10.15
2019-02-20T10:50:59.301Z,10.31
2019-02-20T10:55:55.208Z,10.38
2019-02-20T11:00:51.554Z,10.41
2019-02-20T11:05:47.367Z,10.34
2019-02-20T11:10:43.326Z,10.40
2019-02-20T11:15:39.651Z,10.42
2019-02-20T11:20:35.423Z,10.51
2019-02-20T11:25:32.340Z,10.67
2019-02-20T11:30:27.861Z,10.89
2019-02-20T11:35:23.546Z,10.71
2019-02-20T11:40:19.655Z,10.75
2019-02-20T11:45:15.478Z,10.89
2019-02-20T11:50:11.252Z,10.96
2019-02-20T11:55:07.056Z,10.97
2019-02-20T12:00:02.802Z,10.94
2019-02-20T12:04:59.586Z,10.86
2019-02-20T12:09:54.735Z,10.94
2019-02-20T12:14:50.679Z,11.00
2019-02-20T12:19:46.351Z,11.15
2019-02-20T12:24:43.121Z,11.19
2019-02-20T12:29:39.601Z,11.25
2019-02-20T12:34:36.223Z,11.44
2019-02-20T12:39:31.984Z,11.57
2019-02-20T12:44:27.807Z,11.36
2019-02-20T12:49:24.602Z,11.59
2019-02-20T12:54:20.514Z,11.70
2019-02-20T12:59:16.041Z,11.65
2019-02-20T13:04:13.003Z,11.52
2019-02-20T13:09:08.475Z,11.55
2019-02-20T13:14:04.403Z,11.57
2019-02-20T13:18:59.819Z,11.66
2019-02-20T13:23:55.810Z,11.80
2019-02-20T13:28:51.977Z,11.73
2019-02-20T13:33:47.581Z,11.72
2019-02-20T13:38:43.286Z,11.66
2019-02-20T13:43:39.795Z,11.66
2019-02-20T13:48:35.548Z,11.66
2019-02-20T13:53:31.207Z,11.75
2019-02-20T13:58:27.915Z,11.81
2019-02-20T14:03:23.401Z,11.73
2019-02-20T14:08:19.130Z,11.69
2019-02-20T14:13:14.751Z,11.70
2019-02-20T14:18:10.723Z,11.78
2019-02-20T14:23:07.185Z,11.78
2019-02-20T14:28:02.940Z,11.77
2019-02-20T14:32:58.720Z,11.88
2019-02-20T14:37:54.565Z,11.81
2019-02-20T14:42:50.354Z,11.84
2019-02-20T14:47:46.244Z,11.91
2019-02-20T14:52:41.966Z,11.83
2019-02-20T14:57:37.684Z,11.78
2019-02-20T15:02:33.467Z,11.77
2019-02-20T15:07:29.070Z,11.73
2019-02-20T15:12:24.962Z,11.72
2019-02-20T15:17:20.613Z,11.87
2019-02-20T15:22:17.608Z,11.81
2019-02-20T15:27:13.980Z,11.77
2019-02-20T15:32:10.535Z,11.73
2019-02-20T15:37:05.801Z,11.65
2019-02-20T15:42:02.638Z,11.59
2019-02-20T15:46:58.175Z,11.57
2019-02-20T15:51:53.821Z,11.37
2019-02-20T15:56:49.491Z,11.40
2019-02-20T16:01:45.142Z,11.36
2019-02-20T16:06:40.809Z,11.44
2019-02-20T16:11:36.952Z,11.44
2019-02-20T16:16:32.634Z,11.30
2019-02-20T16:21:29.663Z,11.35
2019-02-20T16:26:25.034Z,11.33
2019-02-20T16:31:20.757Z,11.27
2019-02-20T16:36:17.311Z,11.25
2019-02-20T16:41:12.796Z,11.04
2019-02-20T16:46:09.506Z,11.04
2019-02-20T16:51:04.799Z,10.94
2019-02-20T16:56:00.613Z,10.76
2019-02-20T17:00:58.069Z,10.75
2019-02-20T17:05:53.168Z,10.71
2019-02-20T17:10:49.097Z,10.74
2019-02-20T17:15:45.779Z,10.68
2019-02-20T17:20:41.494Z,10.61
2019-02-20T17:25:37.345Z,10.63
2019-02-20T17:30:33.256Z,10.54
2019-02-20T17:35:28.921Z,10.54
2019-02-20T17:40:25.790Z,10.44
2019-02-20T17:45:21.229Z,10.57
2019-02-20T17:50:17.813Z,10.46
2019-02-20T17:55:13.530Z,10.42
2019-02-20T18:00:10.110Z,10.40
2019-02-20T18:05:06.632Z,10.37
2019-02-20T18:10:02.162Z,10.34
2019-02-20T18:14:58.986Z,10.40
2019-02-20T18:19:54.019Z,10.26
2019-02-20T18:24:51.975Z,10.23
2019-02-20T18:29:48.449Z,10.17
2019-02-20T18:34:43.825Z,10.02
2019-02-20T18:39:40.539Z,10.10
2019-02-20T18:44:37.021Z,10.04
2019-02-20T18:49:32.333Z," 9.99"
2019-02-20T18:54:29.269Z," 9.95"
2019-02-20T18:59:25.656Z," 9.94"
2019-02-20T19:04:21.315Z," 9.89"
2019-02-20T19:09:17.349Z," 9.77"
2019-02-20T19:19:13.946Z," 9.82"
2019-02-20T19:24:09.172Z," 9.80"
2019-02-20T19:29:06.357Z," 9.77"
2019-02-20T19:34:02.720Z," 9.79"
2019-02-20T19:38:57.775Z," 9.68"
2019-02-20T19:43:54.305Z," 9.69"
2019-02-20T19:48:54.131Z," 9.69"
2019-02-20T19:53:49.959Z," 9.55"
2019-02-20T19:58:54.427Z," 9.55"
2019-02-20T20:03:46.143Z," 9.46"
2019-02-20T20:08:42.437Z," 9.41"
2019-02-20T20:13:37.840Z," 9.47"
2019-02-20T20:18:34.693Z," 9.41"
2019-02-20T20:23:29.969Z," 9.36"
2019-02-20T20:28:26.682Z," 9.36"
2019-02-20T20:33:22.869Z," 9.31"
2019-02-20T20:38:18.352Z," 9.19"
2019-02-20T20:43:14.157Z," 9.18"
2019-02-20T20:48:12.073Z," 9.22"
2019-02-20T20:53:08.445Z," 9.10"
2019-02-20T20:58:03.773Z," 8.91"
2019-02-20T21:02:59.407Z," 8.87"
2019-02-20T21:07:55.845Z," 8.91"
2019-02-20T21:12:53.662Z," 8.89"
2019-02-20T21:17:49.062Z," 8.81"
2019-02-20T21:22:45.379Z," 8.70"
2019-02-20T21:27:42.190Z," 8.67"
2019-02-20T21:32:39.282Z," 8.63"
2019-02-20T21:37:35.431Z," 8.58"
2019-02-20T21:42:31.542Z," 8.49"
2019-02-20T21:47:28.115Z," 8.52"
2019-02-20T21:52:25.225Z," 8.49"
2019-02-20T21:57:20.492Z," 8.34"
2019-02-20T22:02:16.366Z," 8.28"
2019-02-20T22:07:12.132Z," 8.27"
2019-02-20T22:12:07.399Z," 8.27"
2019-02-20T22:17:04.096Z," 8.28"
2019-02-20T22:22:00.992Z," 8.28"
2019-02-20T22:26:56.368Z," 8.31"
2019-02-20T22:31:53.255Z," 8.19"
2019-02-20T22:36:49.756Z," 8.20"
2019-02-20T22:41:45.423Z," 8.23"
2019-02-20T22:46:42.279Z," 8.24"
2019-02-20T22:51:37.869Z," 8.28"
2019-02-20T22:56:33.774Z," 8.27"
2019-02-20T23:01:31.483Z," 8.30"
2019-02-20T23:06:28.158Z," 8.28"
2019-02-20T23:11:23.609Z," 8.34"
2019-02-20T23:16:19.200Z," 8.41"
2019-02-20T23:21:15.999Z," 8.30"
2019-02-20T23:26:11.635Z," 8.38"
2019-02-20T23:31:07.373Z," 8.44"
2019-02-20T23:36:03.404Z," 8.44"
2019-02-20T23:40:59.205Z," 8.33"
2019-02-20T23:45:54.778Z," 8.33"
2019-02-20T23:50:50.331Z," 8.33"
2019-02-20T23:55:45.824Z," 8.24"
